IRA12G UBBB-OINN
Flight info
| Callsign | IRA12G |
|---|---|
| Flight time | 1h 3m |
| Altitude | 37000 |
| Route | NAMAS DCT PUTMA DCT IMKER |
| Aircraft | A320/M-SDE3FGHIRWY/LB1 |
Departure
| Time | 2026-05-05 16:41 |
|---|---|
| Airport | Heydar Aliyev International Airport (UBBB) |
Arrival
| Time | 2026-05-05 17:44 |
|---|---|
| Airport | Nowshahr Airport (OINN) |
| Time | Latitude | Longitude | Altitude | Speed | Heading |
|---|---|---|---|---|---|
| 2026-05-05 15:53 | 40.46732 | 50.05150 | 9 ft | 0 kts | 179° |
| 2026-05-05 16:30 | 40.46747 | 50.05149 | 10 ft | 4 kts | 174° |
| 2026-05-05 16:31 | 40.46774 | 50.05144 | 10 ft | 4 kts | 165° |
| 2026-05-05 16:31 | 40.46799 | 50.05132 | 9 ft | 4 kts | 153° |
| 2026-05-05 16:31 | 40.46821 | 50.05113 | 10 ft | 4 kts | 132° |
| 2026-05-05 16:31 | 40.46834 | 50.05085 | 12 ft | 3 kts | 91° |
| 2026-05-05 16:32 | 40.46834 | 50.05081 | 12 ft | 0 kts | 88° |
| 2026-05-05 16:35 | 40.46835 | 50.05091 | 12 ft | 3 kts | 88° |
| 2026-05-05 16:35 | 40.46847 | 50.05134 | 9 ft | 7 kts | 46° |
| 2026-05-05 16:35 | 40.46908 | 50.05155 | 9 ft | 11 kts | 30° |
| 2026-05-05 16:36 | 40.46930 | 50.05273 | 9 ft | 16 kts | 89° |
| 2026-05-05 16:36 | 40.46933 | 50.05443 | 8 ft | 21 kts | 88° |
| 2026-05-05 16:36 | 40.46939 | 50.05656 | 8 ft | 25 kts | 88° |
| 2026-05-05 16:36 | 40.46945 | 50.05890 | 8 ft | 20 kts | 88° |
| 2026-05-05 16:37 | 40.46930 | 50.06058 | 10 ft | 15 kts | 135° |
| 2026-05-05 16:37 | 40.46816 | 50.06091 | 8 ft | 20 kts | 181° |
| 2026-05-05 16:37 | 40.46665 | 50.06092 | 8 ft | 24 kts | 179° |
| 2026-05-05 16:37 | 40.46482 | 50.06096 | 8 ft | 28 kts | 179° |
| 2026-05-05 16:38 | 40.46273 | 50.06099 | 8 ft | 32 kts | 179° |
| 2026-05-05 16:38 | 40.46038 | 50.06103 | 8 ft | 35 kts | 179° |
| 2026-05-05 16:38 | 40.45807 | 50.06105 | 8 ft | 34 kts | 180° |
| 2026-05-05 16:38 | 40.45721 | 50.06106 | 8 ft | 1 kts | 178° |
| 2026-05-05 16:39 | 40.45696 | 50.06112 | 10 ft | 6 kts | 164° |
| 2026-05-05 16:39 | 40.45658 | 50.06158 | 8 ft | 10 kts | 112° |
| 2026-05-05 16:39 | 40.45662 | 50.06268 | 10 ft | 15 kts | 66° |
| 2026-05-05 16:39 | 40.45758 | 50.06321 | 7 ft | 14 kts | 360° |
| 2026-05-05 16:40 | 40.45767 | 50.06320 | 7 ft | 0 kts | 359° |
| 2026-05-05 16:40 | 40.46038 | 50.06315 | 7 ft | 78 kts | 360° |
| 2026-05-05 16:40 | 40.46798 | 50.06310 | 10 ft | 138 kts | 359° |
| 2026-05-05 16:40 | 40.47897 | 50.06294 | 237 ft | 166 kts | 1° |
| 2026-05-05 16:41 | 40.49060 | 50.06320 | 955 ft | 167 kts | 356° |
| 2026-05-05 16:41 | 40.50231 | 50.06128 | 1598 ft | 178 kts | 348° |
| 2026-05-05 16:41 | 40.51523 | 50.05791 | 1974 ft | 202 kts | 347° |
| 2026-05-05 16:41 | 40.52981 | 50.05395 | 2439 ft | 226 kts | 347° |
| 2026-05-05 16:42 | 40.54603 | 50.04962 | 2988 ft | 247 kts | 346° |
| 2026-05-05 16:42 | 40.56362 | 50.04652 | 3649 ft | 265 kts | 0° |
| 2026-05-05 16:42 | 40.58194 | 50.05251 | 4373 ft | 281 kts | 26° |
| 2026-05-05 16:42 | 40.59725 | 50.06896 | 5169 ft | 290 kts | 54° |
| 2026-05-05 16:43 | 40.60588 | 50.09288 | 6006 ft | 292 kts | 81° |
| 2026-05-05 16:43 | 40.60618 | 50.11942 | 6839 ft | 292 kts | 101° |
| 2026-05-05 16:43 | 40.60339 | 50.14608 | 7619 ft | 298 kts | 102° |
| 2026-05-05 16:43 | 40.60051 | 50.17319 | 7911 ft | 300 kts | 102° |
| 2026-05-05 16:44 | 40.59763 | 50.20039 | 7996 ft | 300 kts | 102° |
| 2026-05-05 16:44 | 40.59475 | 50.22760 | 8010 ft | 300 kts | 101° |
| 2026-05-05 16:44 | 40.59191 | 50.25482 | 8012 ft | 300 kts | 101° |
| 2026-05-05 16:44 | 40.58910 | 50.28201 | 8016 ft | 300 kts | 102° |
| 2026-05-05 16:45 | 40.58371 | 50.30826 | 8052 ft | 297 kts | 118° |
| 2026-05-05 16:45 | 40.57462 | 50.33275 | 8818 ft | 299 kts | 121° |
| 2026-05-05 16:45 | 40.56549 | 50.35738 | 9737 ft | 302 kts | 121° |
| 2026-05-05 16:45 | 40.55621 | 50.38263 | 10338 ft | 316 kts | 121° |
| 2026-05-05 16:46 | 40.54626 | 50.40958 | 10607 ft | 340 kts | 121° |
| 2026-05-05 16:46 | 40.53562 | 50.43840 | 10995 ft | 357 kts | 120° |
| 2026-05-05 16:46 | 40.52474 | 50.46808 | 11680 ft | 363 kts | 120° |
| 2026-05-05 16:46 | 40.51379 | 50.49819 | 12436 ft | 368 kts | 120° |
| 2026-05-05 16:47 | 40.50271 | 50.52873 | 13184 ft | 372 kts | 121° |
| 2026-05-05 16:47 | 40.49151 | 50.55952 | 13925 ft | 375 kts | 121° |
| 2026-05-05 16:47 | 40.48014 | 50.59059 | 14575 ft | 379 kts | 121° |
| 2026-05-05 16:47 | 40.46859 | 50.62192 | 15220 ft | 383 kts | 121° |
| 2026-05-05 16:48 | 40.45690 | 50.65352 | 15869 ft | 387 kts | 121° |
| 2026-05-05 16:48 | 40.44508 | 50.68544 | 16507 ft | 391 kts | 121° |
| 2026-05-05 16:48 | 40.43318 | 50.71767 | 17136 ft | 395 kts | 121° |
| 2026-05-05 16:48 | 40.42115 | 50.75023 | 17759 ft | 399 kts | 121° |
| 2026-05-05 16:49 | 40.40897 | 50.78313 | 18363 ft | 403 kts | 121° |
| 2026-05-05 16:49 | 40.39667 | 50.81636 | 18892 ft | 407 kts | 121° |
| 2026-05-05 16:49 | 40.38401 | 50.84970 | 19447 ft | 408 kts | 125° |
| 2026-05-05 16:49 | 40.36792 | 50.88004 | 19996 ft | 403 kts | 137° |
| 2026-05-05 16:50 | 40.34790 | 50.90538 | 20547 ft | 398 kts | 148° |
| 2026-05-05 16:50 | 40.32487 | 50.92502 | 21106 ft | 393 kts | 159° |
| 2026-05-05 16:50 | 40.29974 | 50.93856 | 21657 ft | 389 kts | 168° |
| 2026-05-05 16:50 | 40.27390 | 50.94935 | 22195 ft | 392 kts | 168° |
| 2026-05-05 16:51 | 40.24781 | 50.96032 | 22728 ft | 395 kts | 168° |
| 2026-05-05 16:51 | 40.22158 | 50.97141 | 23261 ft | 398 kts | 168° |
| 2026-05-05 16:51 | 40.19513 | 50.98261 | 23723 ft | 401 kts | 168° |
| 2026-05-05 16:51 | 40.16853 | 50.99387 | 24139 ft | 403 kts | 168° |
| 2026-05-05 16:52 | 40.14175 | 51.00518 | 24560 ft | 405 kts | 168° |
| 2026-05-05 16:52 | 40.11487 | 51.01654 | 24973 ft | 407 kts | 168° |
| 2026-05-05 16:52 | 40.08784 | 51.02797 | 25380 ft | 409 kts | 169° |
| 2026-05-05 16:52 | 40.06072 | 51.03941 | 25769 ft | 411 kts | 169° |
| 2026-05-05 16:53 | 40.03343 | 51.05090 | 26161 ft | 413 kts | 169° |
| 2026-05-05 16:53 | 40.00600 | 51.06244 | 26549 ft | 415 kts | 169° |
| 2026-05-05 16:53 | 39.97841 | 51.07402 | 26930 ft | 417 kts | 169° |
| 2026-05-05 16:53 | 39.95073 | 51.08561 | 27304 ft | 419 kts | 169° |
| 2026-05-05 16:54 | 39.92290 | 51.09724 | 27654 ft | 421 kts | 169° |
| 2026-05-05 16:54 | 39.89498 | 51.10891 | 28014 ft | 423 kts | 169° |
| 2026-05-05 16:54 | 39.86692 | 51.12064 | 28360 ft | 425 kts | 169° |
| 2026-05-05 16:54 | 39.83870 | 51.13244 | 28695 ft | 427 kts | 169° |
| 2026-05-05 16:55 | 39.81041 | 51.14428 | 29021 ft | 428 kts | 169° |
| 2026-05-05 16:55 | 39.78197 | 51.15620 | 29328 ft | 430 kts | 169° |
| 2026-05-05 16:55 | 39.75343 | 51.16815 | 29640 ft | 432 kts | 169° |
| 2026-05-05 16:55 | 39.72476 | 51.18012 | 29927 ft | 434 kts | 169° |
| 2026-05-05 16:56 | 39.69594 | 51.19211 | 30179 ft | 435 kts | 169° |
| 2026-05-05 16:56 | 39.66704 | 51.20412 | 30402 ft | 437 kts | 170° |
| 2026-05-05 16:56 | 39.63803 | 51.21615 | 30631 ft | 438 kts | 170° |
| 2026-05-05 16:56 | 39.60902 | 51.22818 | 30902 ft | 438 kts | 170° |
| 2026-05-05 16:57 | 39.58002 | 51.24021 | 31214 ft | 437 kts | 170° |
| 2026-05-05 16:57 | 39.55113 | 51.25218 | 31525 ft | 436 kts | 170° |
| 2026-05-05 16:57 | 39.52228 | 51.26411 | 31838 ft | 435 kts | 170° |
| 2026-05-05 16:57 | 39.49385 | 51.27587 | 32135 ft | 434 kts | 170° |
| 2026-05-05 16:58 | 39.46475 | 51.28790 | 32440 ft | 433 kts | 170° |
| 2026-05-05 16:58 | 39.43603 | 51.29979 | 32743 ft | 433 kts | 170° |
| 2026-05-05 16:58 | 39.40778 | 51.31147 | 33053 ft | 432 kts | 170° |
| 2026-05-05 16:58 | 39.37918 | 51.32325 | 33354 ft | 431 kts | 171° |
| 2026-05-05 16:59 | 39.35063 | 51.33497 | 33664 ft | 430 kts | 171° |
| 2026-05-05 16:59 | 39.32214 | 51.34670 | 33971 ft | 429 kts | 171° |
| 2026-05-05 16:59 | 39.29369 | 51.35841 | 34236 ft | 429 kts | 171° |
| 2026-05-05 16:59 | 39.26490 | 51.37024 | 34483 ft | 429 kts | 171° |
| 2026-05-05 17:00 | 39.23639 | 51.38193 | 34726 ft | 429 kts | 171° |
| 2026-05-05 17:00 | 39.20793 | 51.39352 | 34949 ft | 429 kts | 171° |
| 2026-05-05 17:00 | 39.17944 | 51.40511 | 35169 ft | 430 kts | 171° |
| 2026-05-05 17:00 | 39.15091 | 51.41675 | 35386 ft | 430 kts | 171° |
| 2026-05-05 17:01 | 39.12239 | 51.42842 | 35593 ft | 430 kts | 171° |
| 2026-05-05 17:01 | 39.09424 | 51.43998 | 35806 ft | 430 kts | 171° |
| 2026-05-05 17:01 | 39.06531 | 51.45188 | 36011 ft | 430 kts | 171° |
| 2026-05-05 17:01 | 39.03720 | 51.46337 | 36207 ft | 431 kts | 171° |
| 2026-05-05 17:02 | 39.01791 | 51.47125 | 36329 ft | 431 kts | 171° |
| 2026-05-05 17:02 | 38.98001 | 51.48671 | 36580 ft | 431 kts | 171° |
| 2026-05-05 17:02 | 38.95141 | 51.49833 | 36755 ft | 431 kts | 171° |
| 2026-05-05 17:02 | 38.92278 | 51.50998 | 36925 ft | 432 kts | 171° |
| 2026-05-05 17:03 | 38.86543 | 51.53326 | 36975 ft | 433 kts | 171° |
| 2026-05-05 17:03 | 38.80796 | 51.55655 | 36969 ft | 433 kts | 171° |
| 2026-05-05 17:04 | 38.75982 | 51.57604 | 36965 ft | 434 kts | 171° |
| 2026-05-05 17:04 | 38.70266 | 51.59917 | 36963 ft | 433 kts | 171° |
| 2026-05-05 17:05 | 38.64593 | 51.62201 | 36963 ft | 434 kts | 171° |
| 2026-05-05 17:05 | 38.58789 | 51.64540 | 36958 ft | 434 kts | 171° |
| 2026-05-05 17:06 | 38.53015 | 51.66860 | 36962 ft | 435 kts | 171° |
| 2026-05-05 17:06 | 38.47241 | 51.69182 | 36957 ft | 435 kts | 171° |
| 2026-05-05 17:07 | 38.41464 | 51.71496 | 36963 ft | 435 kts | 171° |
| 2026-05-05 17:07 | 38.35687 | 51.73800 | 36964 ft | 435 kts | 171° |
| 2026-05-05 17:08 | 38.29912 | 51.76110 | 36963 ft | 435 kts | 171° |
| 2026-05-05 17:08 | 38.24141 | 51.78425 | 36964 ft | 434 kts | 171° |
| 2026-05-05 17:09 | 38.18377 | 51.80711 | 36961 ft | 434 kts | 172° |
| 2026-05-05 17:09 | 38.12610 | 51.82995 | 36957 ft | 434 kts | 171° |
| 2026-05-05 17:10 | 38.06843 | 51.85288 | 36959 ft | 434 kts | 171° |
| 2026-05-05 17:10 | 38.01074 | 51.87575 | 36958 ft | 434 kts | 171° |
| 2026-05-05 17:11 | 37.95305 | 51.89855 | 36959 ft | 434 kts | 172° |
| 2026-05-05 17:11 | 37.89533 | 51.92139 | 36958 ft | 434 kts | 171° |
| 2026-05-05 17:12 | 37.83764 | 51.94413 | 36958 ft | 435 kts | 172° |
| 2026-05-05 17:12 | 37.77940 | 51.95699 | 36955 ft | 416 kts | 188° |
| 2026-05-05 17:13 | 37.72208 | 51.95320 | 36923 ft | 413 kts | 191° |
| 2026-05-05 17:13 | 37.69335 | 51.95108 | 36659 ft | 413 kts | 191° |
| 2026-05-05 17:13 | 37.66461 | 51.94905 | 36395 ft | 413 kts | 191° |
| 2026-05-05 17:14 | 37.63589 | 51.94704 | 36140 ft | 413 kts | 191° |
| 2026-05-05 17:14 | 37.60717 | 51.94502 | 35872 ft | 414 kts | 190° |
| 2026-05-05 17:14 | 37.57842 | 51.94295 | 35128 ft | 416 kts | 190° |
| 2026-05-05 17:14 | 37.54942 | 51.94082 | 34298 ft | 418 kts | 189° |
| 2026-05-05 17:15 | 37.52040 | 51.93871 | 33461 ft | 418 kts | 189° |
| 2026-05-05 17:15 | 37.49129 | 51.93662 | 32530 ft | 420 kts | 189° |
| 2026-05-05 17:15 | 37.46204 | 51.93453 | 31551 ft | 423 kts | 188° |
| 2026-05-05 17:15 | 37.43262 | 51.93241 | 30637 ft | 425 kts | 188° |
| 2026-05-05 17:16 | 37.40315 | 51.93032 | 29994 ft | 421 kts | 188° |
| 2026-05-05 17:16 | 37.37410 | 51.92831 | 29323 ft | 415 kts | 188° |
| 2026-05-05 17:16 | 37.34552 | 51.92633 | 28721 ft | 409 kts | 188° |
| 2026-05-05 17:16 | 37.31731 | 51.92435 | 28121 ft | 403 kts | 188° |
| 2026-05-05 17:17 | 37.28946 | 51.92236 | 27537 ft | 399 kts | 188° |
| 2026-05-05 17:17 | 37.26190 | 51.92037 | 26958 ft | 395 kts | 188° |
| 2026-05-05 17:17 | 37.23459 | 51.91839 | 26378 ft | 391 kts | 188° |
| 2026-05-05 17:17 | 37.20758 | 51.91642 | 25814 ft | 387 kts | 188° |
| 2026-05-05 17:18 | 37.18080 | 51.91447 | 25259 ft | 384 kts | 188° |
| 2026-05-05 17:18 | 37.15459 | 51.91261 | 24711 ft | 382 kts | 188° |
| 2026-05-05 17:18 | 37.12815 | 51.91075 | 24166 ft | 379 kts | 188° |
| 2026-05-05 17:18 | 37.10188 | 51.90887 | 23647 ft | 377 kts | 188° |
| 2026-05-05 17:19 | 37.07577 | 51.90700 | 23088 ft | 374 kts | 188° |
| 2026-05-05 17:19 | 37.04994 | 51.90516 | 22592 ft | 370 kts | 188° |
| 2026-05-05 17:19 | 37.02439 | 51.90336 | 22135 ft | 366 kts | 188° |
| 2026-05-05 17:19 | 36.99912 | 51.90155 | 21684 ft | 361 kts | 188° |
| 2026-05-05 17:20 | 36.97417 | 51.89975 | 21245 ft | 357 kts | 188° |
| 2026-05-05 17:20 | 36.94948 | 51.89800 | 20812 ft | 353 kts | 188° |
| 2026-05-05 17:20 | 36.92507 | 51.89627 | 20373 ft | 350 kts | 188° |
| 2026-05-05 17:20 | 36.90089 | 51.89454 | 19928 ft | 347 kts | 188° |
| 2026-05-05 17:21 | 36.87688 | 51.89282 | 19493 ft | 344 kts | 188° |
| 2026-05-05 17:21 | 36.85304 | 51.89110 | 19042 ft | 342 kts | 188° |
| 2026-05-05 17:21 | 36.82899 | 51.88940 | 18587 ft | 341 kts | 188° |
| 2026-05-05 17:22 | 36.78205 | 51.88612 | 17617 ft | 339 kts | 188° |
| 2026-05-05 17:22 | 36.75863 | 51.88449 | 17149 ft | 337 kts | 188° |
| 2026-05-05 17:22 | 36.73526 | 51.88284 | 16679 ft | 335 kts | 188° |
| 2026-05-05 17:22 | 36.71211 | 51.88079 | 16209 ft | 331 kts | 193° |
| 2026-05-05 17:23 | 36.69073 | 51.87164 | 15754 ft | 322 kts | 213° |
| 2026-05-05 17:23 | 36.67387 | 51.85388 | 15285 ft | 318 kts | 232° |
| 2026-05-05 17:23 | 36.66339 | 51.82982 | 14773 ft | 318 kts | 252° |
| 2026-05-05 17:23 | 36.66036 | 51.80246 | 14278 ft | 322 kts | 267° |
| 2026-05-05 17:24 | 36.66036 | 51.77451 | 13769 ft | 323 kts | 268° |
| 2026-05-05 17:24 | 36.66042 | 51.74651 | 13212 ft | 324 kts | 268° |
| 2026-05-05 17:24 | 36.66046 | 51.71850 | 12691 ft | 323 kts | 268° |
| 2026-05-05 17:24 | 36.66046 | 51.69058 | 12166 ft | 322 kts | 268° |
| 2026-05-05 17:25 | 36.66043 | 51.66272 | 11647 ft | 322 kts | 268° |
| 2026-05-05 17:25 | 36.66039 | 51.64437 | 11374 ft | 319 kts | 268° |
| 2026-05-05 17:25 | 36.66028 | 51.60747 | 10693 ft | 319 kts | 268° |
| 2026-05-05 17:25 | 36.66020 | 51.58013 | 10469 ft | 309 kts | 268° |
| 2026-05-05 17:26 | 36.66015 | 51.55398 | 10380 ft | 296 kts | 268° |
| 2026-05-05 17:26 | 36.66006 | 51.52887 | 10267 ft | 284 kts | 268° |
| 2026-05-05 17:26 | 36.65999 | 51.50471 | 10139 ft | 274 kts | 268° |
| 2026-05-05 17:26 | 36.65992 | 51.48143 | 10015 ft | 264 kts | 268° |
| 2026-05-05 17:27 | 36.66052 | 51.45872 | 9730 ft | 263 kts | 278° |
| 2026-05-05 17:27 | 36.66725 | 51.43772 | 9471 ft | 262 kts | 302° |
| 2026-05-05 17:27 | 36.68025 | 51.42207 | 9236 ft | 261 kts | 327° |
| 2026-05-05 17:27 | 36.69717 | 51.41450 | 8995 ft | 259 kts | 352° |
| 2026-05-05 17:28 | 36.71487 | 51.41602 | 8775 ft | 255 kts | 16° |
| 2026-05-05 17:28 | 36.73036 | 51.42593 | 8554 ft | 250 kts | 41° |
| 2026-05-05 17:28 | 36.74128 | 51.44243 | 8330 ft | 246 kts | 65° |
| 2026-05-05 17:28 | 36.74622 | 51.46256 | 8119 ft | 242 kts | 88° |
| 2026-05-05 17:29 | 36.74476 | 51.48316 | 7908 ft | 237 kts | 109° |
| 2026-05-05 17:29 | 36.73936 | 51.50256 | 7705 ft | 237 kts | 111° |
| 2026-05-05 17:29 | 36.73397 | 51.52156 | 7495 ft | 235 kts | 111° |
| 2026-05-05 17:29 | 36.72853 | 51.54072 | 7288 ft | 234 kts | 111° |
| 2026-05-05 17:30 | 36.72309 | 51.55979 | 7084 ft | 233 kts | 111° |
| 2026-05-05 17:30 | 36.71771 | 51.57873 | 6880 ft | 231 kts | 111° |
| 2026-05-05 17:30 | 36.71236 | 51.59756 | 6680 ft | 230 kts | 111° |
| 2026-05-05 17:30 | 36.70707 | 51.61616 | 6487 ft | 225 kts | 111° |
| 2026-05-05 17:31 | 36.70187 | 51.63438 | 6289 ft | 221 kts | 111° |
| 2026-05-05 17:31 | 36.69679 | 51.65222 | 6088 ft | 216 kts | 111° |
| 2026-05-05 17:31 | 36.69184 | 51.66963 | 5903 ft | 210 kts | 110° |
| 2026-05-05 17:31 | 36.68703 | 51.68658 | 5727 ft | 205 kts | 111° |
| 2026-05-05 17:32 | 36.68230 | 51.70321 | 5553 ft | 203 kts | 110° |
| 2026-05-05 17:32 | 36.67760 | 51.71975 | 5378 ft | 202 kts | 110° |
| 2026-05-05 17:32 | 36.67290 | 51.73621 | 5206 ft | 201 kts | 110° |
| 2026-05-05 17:32 | 36.66823 | 51.75256 | 5034 ft | 200 kts | 110° |
| 2026-05-05 17:33 | 36.66430 | 51.76911 | 4881 ft | 198 kts | 99° |
| 2026-05-05 17:33 | 36.66385 | 51.78557 | 4819 ft | 183 kts | 90° |
| 2026-05-05 17:33 | 36.66401 | 51.80087 | 4755 ft | 169 kts | 91° |
| 2026-05-05 17:33 | 36.66409 | 51.81476 | 4748 ft | 152 kts | 91° |
| 2026-05-05 17:34 | 36.66417 | 51.82768 | 4763 ft | 148 kts | 91° |
| 2026-05-05 17:34 | 36.66427 | 51.84030 | 4778 ft | 147 kts | 91° |
| 2026-05-05 17:34 | 36.66319 | 51.85293 | 4779 ft | 147 kts | 105° |
| 2026-05-05 17:34 | 36.65948 | 51.86468 | 4785 ft | 146 kts | 120° |
| 2026-05-05 17:35 | 36.65339 | 51.87481 | 4791 ft | 147 kts | 135° |
| 2026-05-05 17:35 | 36.64537 | 51.88265 | 4793 ft | 147 kts | 149° |
| 2026-05-05 17:35 | 36.63591 | 51.88755 | 4797 ft | 148 kts | 164° |
| 2026-05-05 17:35 | 36.62566 | 51.88911 | 4795 ft | 150 kts | 180° |
| 2026-05-05 17:36 | 36.61532 | 51.88715 | 4800 ft | 152 kts | 195° |
| 2026-05-05 17:36 | 36.60569 | 51.88168 | 4802 ft | 153 kts | 211° |
| 2026-05-05 17:36 | 36.59757 | 51.87305 | 4796 ft | 155 kts | 227° |
| 2026-05-05 17:36 | 36.59159 | 51.86185 | 4793 ft | 157 kts | 244° |
| 2026-05-05 17:37 | 36.58839 | 51.84890 | 4792 ft | 158 kts | 261° |
| 2026-05-05 17:37 | 36.58795 | 51.83986 | 4788 ft | 159 kts | 272° |
| 2026-05-05 17:37 | 36.59131 | 51.82203 | 4782 ft | 160 kts | 296° |
| 2026-05-05 17:37 | 36.59692 | 51.81011 | 4783 ft | 160 kts | 302° |
| 2026-05-05 17:38 | 36.60268 | 51.79825 | 4774 ft | 160 kts | 301° |
| 2026-05-05 17:38 | 36.60820 | 51.78625 | 4769 ft | 160 kts | 294° |
| 2026-05-05 17:38 | 36.61170 | 51.77316 | 4764 ft | 160 kts | 280° |
| 2026-05-05 17:38 | 36.61382 | 51.75948 | 4651 ft | 161 kts | 280° |
| 2026-05-05 17:39 | 36.61599 | 51.74587 | 4492 ft | 160 kts | 281° |
| 2026-05-05 17:39 | 36.61814 | 51.73232 | 4331 ft | 159 kts | 280° |
| 2026-05-05 17:39 | 36.62026 | 51.71885 | 4187 ft | 158 kts | 281° |
| 2026-05-05 17:39 | 36.62237 | 51.70557 | 4054 ft | 158 kts | 281° |
| 2026-05-05 17:40 | 36.62449 | 51.69217 | 3906 ft | 157 kts | 281° |
| 2026-05-05 17:40 | 36.62661 | 51.67884 | 3734 ft | 156 kts | 281° |
| 2026-05-05 17:40 | 36.62870 | 51.66560 | 3542 ft | 155 kts | 281° |
| 2026-05-05 17:40 | 36.63077 | 51.65248 | 3338 ft | 154 kts | 281° |
| 2026-05-05 17:41 | 36.63282 | 51.63945 | 3138 ft | 153 kts | 281° |
| 2026-05-05 17:41 | 36.63487 | 51.62654 | 2918 ft | 152 kts | 281° |
| 2026-05-05 17:41 | 36.63689 | 51.61372 | 2675 ft | 150 kts | 281° |
| 2026-05-05 17:41 | 36.63888 | 51.60107 | 2412 ft | 149 kts | 281° |
| 2026-05-05 17:42 | 36.64085 | 51.58867 | 2274 ft | 143 kts | 280° |
| 2026-05-05 17:42 | 36.64276 | 51.57644 | 2240 ft | 144 kts | 280° |
| 2026-05-05 17:42 | 36.64464 | 51.56414 | 2113 ft | 144 kts | 279° |
| 2026-05-05 17:42 | 36.64618 | 51.55180 | 1839 ft | 145 kts | 277° |
| 2026-05-05 17:43 | 36.64743 | 51.53926 | 1425 ft | 147 kts | 277° |
| 2026-05-05 17:43 | 36.64886 | 51.52678 | 1088 ft | 145 kts | 282° |
| 2026-05-05 17:43 | 36.65103 | 51.51462 | 825 ft | 143 kts | 285° |
| 2026-05-05 17:43 | 36.65370 | 51.50265 | 526 ft | 143 kts | 286° |
| 2026-05-05 17:44 | 36.65667 | 51.49076 | 218 ft | 141 kts | 289° |
| 2026-05-05 17:44 | 36.65975 | 51.47904 | 32 ft | 143 kts | 289° |
| 2026-05-05 17:44 | 36.66299 | 51.46803 | -62 ft | 120 kts | 286° |
| 2026-05-05 17:44 | 36.66457 | 51.46168 | -61 ft | 33 kts | 288° |
| 2026-05-05 17:45 | 36.66481 | 51.46081 | -56 ft | 13 kts | 289° |
| 2026-05-05 17:45 | 36.66525 | 51.45918 | -55 ft | 23 kts | 288° |
| 2026-05-05 17:45 | 36.66581 | 51.45709 | -56 ft | 28 kts | 289° |
| 2026-05-05 17:45 | 36.66615 | 51.45513 | -56 ft | 17 kts | 267° |
| 2026-05-05 17:46 | 36.66636 | 51.45511 | -61 ft | 5 kts | 92° |
| 2026-05-05 17:46 | 36.66622 | 51.45571 | -60 ft | 10 kts | 109° |
| 2026-05-05 17:46 | 36.66595 | 51.45669 | -58 ft | 14 kts | 109° |
| 2026-05-05 17:46 | 36.66560 | 51.45796 | -64 ft | 17 kts | 109° |
| 2026-05-05 17:47 | 36.66518 | 51.45945 | -58 ft | 20 kts | 104° |
| 2026-05-05 17:47 | 36.66473 | 51.46124 | -58 ft | 23 kts | 108° |
| 2026-05-05 17:47 | 36.66418 | 51.46327 | -62 ft | 26 kts | 108° |
| 2026-05-05 17:47 | 36.66360 | 51.46557 | -59 ft | 29 kts | 110° |
| 2026-05-05 17:48 | 36.66289 | 51.46797 | -63 ft | 30 kts | 109° |
| 2026-05-05 17:48 | 36.66223 | 51.47013 | -59 ft | 10 kts | 135° |
| 2026-05-05 17:48 | 36.66156 | 51.47003 | -60 ft | 10 kts | 201° |
| 2026-05-05 17:48 | 36.66108 | 51.46973 | -59 ft | 6 kts | 177° |
| 2026-05-05 17:49 | 36.66096 | 51.46978 | -59 ft | 0 kts | 163° |